Time;durP1;ratioP1;P1;durP2;ratioP2;P2;SDS_P1;SDS_P2;PMS_P1;PMS_P2;Temp;Humidity;BMP_temperature;BMP_pressure;BME280_temperature;BME280_humidity;BME280_pressure;Samples;Min_cycle;Max_cycle;Signal;HPM_P1;HPM_P2
2023/11/18 00:00:30;;;;;;;8.57;7.30;;;2.20;99.90;;;;;;5050985;28;20202;-63
2023/11/18 00:02:57;;;;;;;7.45;6.75;;;2.20;99.90;;;;;;5050970;28;20676;-63
2023/11/18 00:05:24;;;;;;;6.93;6.22;;;2.10;99.90;;;;;;5050938;28;20234;-63
2023/11/18 00:07:52;;;;;;;6.65;6.05;;;2.10;99.90;;;;;;5050230;28;20606;-63
2023/11/18 00:10:19;;;;;;;7.35;6.03;;;2.10;99.90;;;;;;5050783;28;20676;-63
2023/11/18 00:12:46;;;;;;;8.00;6.18;;;2.10;99.90;;;;;;5050091;28;20286;-63
2023/11/18 00:15:13;;;;;;;9.13;6.93;;;2.00;99.90;;;;;;5050371;28;20563;-62
2023/11/18 00:17:40;;;;;;;7.40;6.90;;;2.00;99.90;;;;;;5050299;28;20286;-63
2023/11/18 00:20:11;;;;;;;7.95;7.18;;;1.90;99.90;;;;;;5050148;28;20296;-62
2023/11/18 00:22:39;;;;;;;10.95;7.53;;;1.90;99.90;;;;;;5050843;28;20206;-63
2023/11/18 00:25:08;;;;;;;8.60;6.85;;;1.90;99.90;;;;;;5052827;28;20205;-63
2023/11/18 00:27:36;;;;;;;8.68;7.40;;;1.80;99.90;;;;;;5050118;28;20209;-63
2023/11/18 00:30:05;;;;;;;7.20;6.50;;;1.80;99.90;;;;;;5050321;28;20677;-63
2023/11/18 00:32:32;;;;;;;9.48;7.57;;;1.80;99.90;;;;;;5050528;28;20588;-63
2023/11/18 00:34:59;;;;;;;8.32;7.43;;;1.80;99.90;;;;;;5050069;28;20202;-62
2023/11/18 00:37:26;;;;;;;8.65;6.35;;;1.70;99.90;;;;;;5050255;28;20610;-63
2023/11/18 00:39:53;;;;;;;11.80;8.57;;;1.70;99.90;;;;;;5050145;28;20708;-63
2023/11/18 00:42:21;;;;;;;6.85;6.25;;;1.70;99.90;;;;;;5050433;28;20222;-63
2023/11/18 00:44:48;;;;;;;8.65;7.85;;;1.70;99.90;;;;;;5050167;28;20194;-63
2023/11/18 00:47:15;;;;;;;8.18;7.35;;;1.70;99.90;;;;;;5041489;28;20293;-62
2023/11/18 00:49:42;;;;;;;12.23;8.32;;;1.60;99.90;;;;;;5050361;28;20230;-63
2023/11/18 00:52:09;;;;;;;8.52;7.07;;;1.60;99.90;;;;;;5049033;28;20236;-63
2023/11/18 00:54:36;;;;;;;7.93;7.10;;;1.60;99.90;;;;;;5050207;28;20312;-63
2023/11/18 00:57:03;;;;;;;8.45;7.57;;;1.60;99.90;;;;;;5048984;28;20209;-63
2023/11/18 00:59:31;;;;;;;8.10;7.00;;;1.60;99.90;;;;;;5049664;28;20614;-62
2023/11/18 01:01:58;;;;;;;8.93;7.53;;;1.60;99.90;;;;;;5049595;28;20205;-63
2023/11/18 01:04:26;;;;;;;8.77;6.57;;;1.60;99.90;;;;;;5043378;28;20194;-63
2023/11/18 01:06:53;;;;;;;7.45;6.63;;;1.50;99.90;;;;;;5050214;28;20588;-63
2023/11/18 01:09:19;;;;;;;9.43;7.63;;;1.50;99.90;;;;;;5050029;28;20232;-63
2023/11/18 01:11:46;;;;;;;8.75;7.85;;;1.50;99.90;;;;;;5050177;28;20227;-62
2023/11/18 01:14:13;;;;;;;9.68;7.30;;;1.50;99.90;;;;;;5049781;28;20301;-63
2023/11/18 01:16:41;;;;;;;7.00;6.50;;;1.50;99.90;;;;;;5049887;28;20233;-63
2023/11/18 01:19:09;;;;;;;9.52;7.38;;;1.50;99.90;;;;;;5059382;28;20261;-63
2023/11/18 01:21:36;;;;;;;12.27;7.38;;;1.50;99.90;;;;;;5067320;28;20198;-62
2023/11/18 01:24:05;;;;;;;10.23;8.43;;;1.60;99.90;;;;;;5064681;28;20289;-63
2023/11/18 01:26:32;;;;;;;8.07;7.18;;;1.60;99.90;;;;;;5060189;28;20267;-63
2023/11/18 01:28:59;;;;;;;8.18;7.30;;;1.60;99.90;;;;;;5060481;28;20218;-63
2023/11/18 01:31:26;;;;;;;7.57;6.88;;;1.70;99.90;;;;;;5058982;28;20214;-62
2023/11/18 01:33:55;;;;;;;7.97;7.15;;;1.80;99.90;;;;;;5056344;28;20206;-63
2023/11/18 01:36:23;;;;;;;7.25;6.50;;;1.80;99.90;;;;;;5067363;28;20214;-62
2023/11/18 01:38:49;;;;;;;8.43;6.20;;;1.80;99.90;;;;;;5064282;28;20310;-63
2023/11/18 01:41:16;;;;;;;15.43;8.30;;;1.90;99.90;;;;;;5050884;28;20276;-62
2023/11/18 01:43:46;;;;;;;18.83;6.90;;;1.90;99.90;;;;;;5060430;28;20204;-63
2023/11/18 01:46:13;;;;;;;14.32;6.72;;;1.90;99.90;;;;;;5060363;28;20293;-62
2023/11/18 01:48:42;;;;;;;13.65;8.00;;;2.00;99.90;;;;;;5058501;28;20305;-63
2023/11/18 01:51:11;;;;;;;12.80;8.48;;;2.00;99.90;;;;;;5054874;28;20223;-63
2023/11/18 01:53:39;;;;;;;14.15;8.75;;;2.00;99.90;;;;;;5048639;28;20293;-62
2023/11/18 01:56:08;;;;;;;14.13;7.53;;;2.00;99.90;;;;;;5047339;28;20210;-63
2023/11/18 01:58:36;;;;;;;16.42;8.35;;;2.00;99.90;;;;;;5048349;28;20288;-62
2023/11/18 02:01:07;;;;;;;19.63;9.35;;;2.00;99.90;;;;;;5050228;28;20289;-63
2023/11/18 02:03:34;;;;;;;16.98;8.93;;;2.10;99.90;;;;;;5050397;28;20638;-63
2023/11/18 02:06:01;;;;;;;16.30;8.93;;;2.10;99.90;;;;;;5049997;28;20213;-62
2023/11/18 02:08:29;;;;;;;15.93;8.15;;;2.10;99.90;;;;;;5051256;28;20252;-63
2023/11/18 02:10:59;;;;;;;21.23;8.55;;;2.10;99.90;;;;;;5053958;28;20231;-63
2023/11/18 02:13:34;;;;;;;17.33;8.13;;;2.10;99.90;;;;;;5054104;28;20208;-62
2023/11/18 02:16:02;;;;;;;12.75;8.38;;;2.10;99.90;;;;;;5053737;28;20256;-63
2023/11/18 02:18:31;;;;;;;13.45;10.23;;;2.10;99.90;;;;;;5053722;28;20226;-63
2023/11/18 02:20:59;;;;;;;24.90;10.00;;;2.10;99.90;;;;;;5053783;28;20202;-63
2023/11/18 02:23:26;;;;;;;16.67;9.30;;;2.10;99.90;;;;;;5053847;28;20206;-63
2023/11/18 02:25:55;;;;;;;25.13;8.85;;;2.10;99.90;;;;;;5053510;28;20271;-63
2023/11/18 02:28:22;;;;;;;26.65;9.95;;;2.10;99.90;;;;;;5053651;28;20276;-62
2023/11/18 02:30:51;;;;;;;25.58;9.38;;;2.00;99.90;;;;;;5053422;28;20217;-62
2023/11/18 02:33:26;;;;;;;21.90;8.98;;;2.00;99.90;;;;;;5053370;28;20297;-62
2023/11/18 02:35:56;;;;;;;28.75;9.55;;;2.00;99.90;;;;;;5053532;28;20186;-62
2023/11/18 02:38:27;;;;;;;27.40;10.13;;;2.00;99.90;;;;;;5053248;28;20450;-63
2023/11/18 02:40:59;;;;;;;66.10;10.82;;;2.00;99.90;;;;;;5053319;28;20892;-62
2023/11/18 02:43:28;;;;;;;41.70;8.98;;;2.00;99.90;;;;;;5053139;28;20297;-63
2023/11/18 02:45:57;;;;;;;24.42;9.38;;;2.00;99.90;;;;;;5052954;28;20215;-62
2023/11/18 02:48:24;;;;;;;32.28;9.25;;;2.00;99.90;;;;;;5053168;28;20230;-62
2023/11/18 02:50:51;;;;;;;42.22;8.68;;;2.00;99.90;;;;;;5052925;28;20705;-63
2023/11/18 02:53:18;;;;;;;59.05;10.40;;;2.00;99.90;;;;;;5052816;28;20210;-62
2023/11/18 02:55:46;;;;;;;47.17;9.93;;;2.00;99.90;;;;;;5052868;28;20296;-62
2023/11/18 02:58:14;;;;;;;43.38;10.45;;;2.10;99.90;;;;;;5052617;28;20238;-62
2023/11/18 03:00:41;;;;;;;32.13;11.32;;;2.10;99.90;;;;;;5052790;28;20211;-62
2023/11/18 03:03:08;;;;;;;31.65;8.45;;;2.10;99.90;;;;;;5052998;28;20582;-62
2023/11/18 03:05:36;;;;;;;34.28;10.07;;;2.10;99.90;;;;;;5052662;28;20206;-62
2023/11/18 03:08:05;;;;;;;22.17;8.13;;;2.10;99.90;;;;;;5052436;28;20450;-63
2023/11/18 03:10:34;;;;;;;73.88;11.05;;;2.10;99.90;;;;;;5052661;28;20206;-62
2023/11/18 03:13:02;;;;;;;49.47;9.35;;;2.20;99.90;;;;;;5052402;28;20222;-62
2023/11/18 03:15:30;;;;;;;28.27;10.27;;;2.20;99.90;;;;;;5052334;28;20650;-62
2023/11/18 03:17:57;;;;;;;33.25;10.18;;;2.20;99.90;;;;;;5052435;28;20261;-63
2023/11/18 03:20:26;;;;;;;26.55;9.13;;;2.20;99.90;;;;;;5052186;28;20590;-62
2023/11/18 03:22:53;;;;;;;28.25;8.80;;;2.30;99.90;;;;;;5052278;28;20293;-62
2023/11/18 03:25:21;;;;;;;29.52;10.65;;;2.30;99.90;;;;;;5052375;28;20206;-62
2023/11/18 03:27:48;;;;;;;19.30;8.13;;;2.30;99.90;;;;;;5051971;28;20213;-62
2023/11/18 03:30:16;;;;;;;29.85;9.60;;;2.30;99.90;;;;;;5052468;28;20216;-63
2023/11/18 03:32:45;;;;;;;26.10;10.15;;;2.40;99.90;;;;;;5052363;28;20249;-62
2023/11/18 03:35:12;;;;;;;46.15;10.20;;;2.40;99.90;;;;;;5052173;28;20214;-62
2023/11/18 03:37:40;;;;;;;40.30;10.20;;;2.40;99.90;;;;;;5051865;28;20694;-63
2023/11/18 03:40:08;;;;;;;23.70;10.40;;;2.50;99.90;;;;;;5052124;28;20213;-62
2023/11/18 03:42:37;;;;;;;41.35;11.05;;;2.50;99.90;;;;;;5052276;28;20289;-63
2023/11/18 03:45:05;;;;;;;46.08;11.02;;;2.50;99.90;;;;;;5052178;28;20585;-62
2023/11/18 03:47:31;;;;;;;87.30;14.57;;;2.60;99.90;;;;;;5051783;28;20206;-62
2023/11/18 03:50:00;;;;;;;52.08;10.82;;;2.60;99.90;;;;;;5051711;28;20206;-62
2023/11/18 03:52:27;;;;;;;36.53;10.57;;;2.60;99.90;;;;;;5051854;28;20232;-62
2023/11/18 03:54:54;;;;;;;62.58;11.52;;;2.60;99.90;;;;;;5051752;28;20244;-62
2023/11/18 03:57:21;;;;;;;22.60;7.93;;;2.60;99.90;;;;;;5051529;28;20206;-62
2023/11/18 03:59:48;;;;;;;33.25;10.40;;;2.60;99.90;;;;;;5051299;28;20238;-62
2023/11/18 04:02:15;;;;;;;58.60;12.20;;;2.70;99.90;;;;;;5051836;28;20654;-62
2023/11/18 04:04:42;;;;;;;58.45;12.35;;;2.70;99.90;;;;;;5051593;28;20684;-62
2023/11/18 04:07:10;;;;;;;38.20;8.95;;;2.70;99.90;;;;;;5051377;28;20210;-62
2023/11/18 04:09:37;;;;;;;33.00;9.70;;;2.70;99.90;;;;;;5051504;28;20313;-62
2023/11/18 04:12:05;;;;;;;47.65;9.85;;;2.70;99.90;;;;;;5051532;28;20232;-62
2023/11/18 04:14:32;;;;;;;64.47;12.00;;;2.60;99.90;;;;;;5050769;28;20209;-63
2023/11/18 04:16:58;;;;;;;62.28;11.88;;;2.60;99.90;;;;;;5051264;28;20209;-62
2023/11/18 04:19:25;;;;;;;56.20;10.48;;;2.60;99.90;;;;;;5050147;28;20321;-62
2023/11/18 04:21:52;;;;;;;38.20;9.20;;;2.60;99.90;;;;;;5051558;28;20225;-63
2023/11/18 04:24:21;;;;;;;45.50;9.98;;;2.60;99.90;;;;;;5051452;28;20206;-62
2023/11/18 04:26:49;;;;;;;48.20;9.88;;;2.60;99.90;;;;;;5051247;28;20230;-63
2023/11/18 04:29:15;;;;;;;59.75;11.38;;;2.60;99.90;;;;;;5051114;28;20276;-62
2023/11/18 04:31:42;;;;;;;33.15;7.68;;;2.60;99.90;;;;;;5050436;28;20759;-63
2023/11/18 04:34:09;;;;;;;39.22;8.63;;;2.60;99.90;;;;;;5051409;28;20699;-63
2023/11/18 04:36:37;;;;;;;42.25;9.90;;;2.60;99.90;;;;;;5050976;28;20203;-64
2023/11/18 04:39:04;;;;;;;22.02;8.05;;;2.60;99.90;;;;;;5051064;28;20222;-62
2023/11/18 04:41:32;;;;;;;49.92;9.82;;;2.60;99.90;;;;;;5051090;28;20669;-63
2023/11/18 04:43:59;;;;;;;31.63;8.45;;;2.60;99.90;;;;;;5051015;28;20209;-63
2023/11/18 04:46:26;;;;;;;22.25;8.70;;;2.60;99.90;;;;;;5050935;28;20297;-63
2023/11/18 04:48:54;;;;;;;36.50;8.88;;;2.50;99.90;;;;;;5050892;28;20743;-63
2023/11/18 04:51:22;;;;;;;27.75;6.38;;;2.50;99.90;;;;;;5050570;28;20695;-63
2023/11/18 04:53:49;;;;;;;27.63;7.93;;;2.50;99.90;;;;;;5050870;28;20667;-63
2023/11/18 04:56:18;;;;;;;21.08;6.50;;;2.40;99.90;;;;;;5050693;28;20869;-63
2023/11/18 04:58:47;;;;;;;22.60;6.88;;;2.40;99.90;;;;;;5050360;28;20234;-63
2023/11/18 05:01:14;;;;;;;26.75;8.50;;;2.40;99.90;;;;;;5050724;28;20232;-63
2023/11/18 05:03:41;;;;;;;28.27;6.72;;;2.40;99.90;;;;;;5050743;28;20218;-63
2023/11/18 05:06:08;;;;;;;17.00;7.53;;;2.40;99.90;;;;;;5050624;28;20217;-63
2023/11/18 05:08:36;;;;;;;54.10;8.73;;;2.30;99.90;;;;;;5050840;28;20229;-63
2023/11/18 05:11:04;;;;;;;26.88;7.20;;;2.30;99.90;;;;;;5050800;28;20695;-63
2023/11/18 05:13:32;;;;;;;27.17;7.85;;;2.30;99.90;;;;;;5050810;28;20312;-63
2023/11/18 05:16:00;;;;;;;25.42;7.75;;;2.30;99.90;;;;;;5050576;28;20659;-63
2023/11/18 05:18:29;;;;;;;27.17;7.75;;;2.30;99.90;;;;;;5050526;28;20236;-63
2023/11/18 05:20:57;;;;;;;26.73;7.38;;;2.30;99.90;;;;;;5050645;28;20206;-63
2023/11/18 05:23:24;;;;;;;49.45;7.75;;;2.30;99.90;;;;;;5050854;28;20561;-63
2023/11/18 05:25:50;;;;;;;23.17;7.05;;;2.30;99.90;;;;;;5051002;28;20297;-63
2023/11/18 05:28:17;;;;;;;15.50;6.85;;;2.30;99.90;;;;;;5050345;28;20314;-63
2023/11/18 05:30:44;;;;;;;43.50;9.43;;;2.30;99.90;;;;;;5050564;28;20237;-63
2023/11/18 05:33:17;;;;;;;37.00;8.80;;;2.30;99.90;;;;;;5050571;28;20233;-63
2023/11/18 05:35:48;;;;;;;32.75;7.70;;;2.30;99.90;;;;;;5050623;28;20226;-63
2023/11/18 05:38:18;;;;;;;24.02;8.45;;;2.30;99.90;;;;;;5050224;28;20226;-63
2023/11/18 05:40:55;;;;;;;42.83;8.93;;;2.30;99.90;;;;;;5050539;28;20206;-63
2023/11/18 05:43:22;;;;;;;63.10;9.85;;;2.30;99.90;;;;;;5053432;28;20259;-63
2023/11/18 05:46:14;;;;;;;24.33;8.00;;;2.30;99.90;;;;;;5054037;28;20728;-63
2023/11/18 05:48:42;;;;;;;55.90;8.88;;;2.30;99.90;;;;;;5034100;28;20310;-63
2023/11/18 05:51:09;;;;;;;84.15;9.45;;;2.30;99.90;;;;;;5034431;28;20211;-63
2023/11/18 05:53:40;;;;;;;65.43;9.80;;;2.30;99.90;;;;;;5034144;28;20230;-63
2023/11/18 05:56:07;;;;;;;43.42;8.13;;;2.30;99.90;;;;;;5033986;28;20209;-63
2023/11/18 05:58:34;;;;;;;40.20;8.30;;;2.30;99.90;;;;;;5033876;28;20239;-63
2023/11/18 06:01:01;;;;;;;38.70;8.23;;;2.30;99.90;;;;;;5034114;28;20213;-63
2023/11/18 06:03:28;;;;;;;62.13;6.55;;;2.30;99.90;;;;;;5034010;28;20199;-63
2023/11/18 06:05:56;;;;;;;23.77;6.22;;;2.30;99.90;;;;;;5034197;28;20221;-63
2023/11/18 06:08:24;;;;;;;25.02;5.85;;;2.20;99.90;;;;;;5034056;28;20227;-63
2023/11/18 06:10:51;;;;;;;27.10;5.53;;;2.20;99.90;;;;;;5034301;28;20720;-63
2023/11/18 06:13:18;;;;;;;19.30;5.60;;;2.30;99.90;;;;;;5034108;28;20225;-63
2023/11/18 06:15:45;;;;;;;24.10;6.38;;;2.20;99.90;;;;;;5033762;28;20211;-63
2023/11/18 06:18:13;;;;;;;20.52;6.53;;;2.20;99.90;;;;;;5033685;28;20718;-63
2023/11/18 06:20:40;;;;;;;18.38;5.45;;;2.20;99.90;;;;;;5034022;28;20211;-64
2023/11/18 06:23:08;;;;;;;42.28;8.57;;;2.20;99.90;;;;;;5033846;28;20207;-63
2023/11/18 06:25:35;;;;;;;40.88;7.20;;;2.10;99.90;;;;;;5033808;28;20217;-63
2023/11/18 06:28:02;;;;;;;35.45;6.43;;;2.10;99.90;;;;;;5033391;28;20223;-63
2023/11/18 06:30:29;;;;;;;21.00;6.03;;;2.10;99.90;;;;;;5033681;28;20230;-63
2023/11/18 06:32:56;;;;;;;35.65;8.07;;;2.10;99.90;;;;;;5033741;28;20231;-64
2023/11/18 06:35:22;;;;;;;59.58;7.90;;;2.10;99.90;;;;;;5033624;28;20207;-63
2023/11/18 06:37:49;;;;;;;34.72;7.95;;;2.10;99.90;;;;;;5033311;28;20696;-63
2023/11/18 06:40:18;;;;;;;38.58;7.60;;;2.10;99.90;;;;;;5033606;28;20207;-63
2023/11/18 06:42:47;;;;;;;41.90;7.70;;;2.10;99.90;;;;;;5033250;28;20211;-63
2023/11/18 06:45:14;;;;;;;70.78;9.38;;;2.10;99.90;;;;;;5033392;28;20207;-63
2023/11/18 06:47:44;;;;;;;35.33;7.25;;;2.10;99.90;;;;;;5033009;28;20261;-63
2023/11/18 06:50:14;;;;;;;27.25;8.00;;;2.20;99.90;;;;;;5036415;28;20796;-63
2023/11/18 06:52:41;;;;;;;35.00;8.00;;;2.20;99.90;;;;;;5053011;28;20269;-63
2023/11/18 06:55:08;;;;;;;30.67;8.70;;;2.20;99.90;;;;;;5052258;28;20210;-63
2023/11/18 06:57:37;;;;;;;40.63;10.05;;;2.20;99.90;;;;;;5052927;28;20304;-63
2023/11/18 07:00:08;;;;;;;22.42;9.30;;;2.20;99.90;;;;;;5053053;28;20210;-63
2023/11/18 07:02:35;;;;;;;25.08;7.45;;;2.30;99.90;;;;;;5053106;28;20246;-63
2023/11/18 07:05:02;;;;;;;19.75;8.32;;;2.30;99.90;;;;;;5052994;28;20682;-63
2023/11/18 07:07:29;;;;;;;22.38;9.15;;;2.30;99.90;;;;;;5052807;28;20213;-63
2023/11/18 07:09:56;;;;;;;35.38;9.70;;;2.40;99.90;;;;;;5052940;28;20305;-63
2023/11/18 07:12:23;;;;;;;23.83;9.90;;;2.40;99.90;;;;;;5053099;28;20211;-63
2023/11/18 07:14:51;;;;;;;27.15;9.18;;;2.50;99.90;;;;;;5053038;28;20228;-63
2023/11/18 07:17:19;;;;;;;27.15;9.95;;;2.50;99.90;;;;;;5052533;28;20202;-63
2023/11/18 07:19:45;;;;;;;48.72;11.60;;;2.60;99.90;;;;;;5052821;28;20230;-63
2023/11/18 07:22:12;;;;;;;29.48;10.05;;;2.60;99.90;;;;;;5052780;28;20207;-64
2023/11/18 07:24:39;;;;;;;30.00;10.52;;;2.60;99.90;;;;;;5052684;28;20681;-63
2023/11/18 07:27:06;;;;;;;29.70;10.32;;;2.70;99.90;;;;;;5052336;28;20691;-63
2023/11/18 07:29:33;;;;;;;35.55;9.95;;;2.70;99.90;;;;;;5052603;28;20307;-63
2023/11/18 07:32:05;;;;;;;39.05;11.45;;;2.70;99.90;;;;;;5052552;28;20214;-63
2023/11/18 07:34:32;;;;;;;17.20;9.82;;;2.80;99.90;;;;;;5052623;28;20226;-63
2023/11/18 07:36:59;;;;;;;23.73;10.02;;;2.90;99.90;;;;;;5052191;28;20272;-63
2023/11/18 07:39:43;;;;;;;26.45;10.43;;;2.90;99.90;;;;;;5052488;28;20321;-63
2023/11/18 07:42:11;;;;;;;27.90;11.70;;;3.00;99.90;;;;;;5052584;28;20202;-63
2023/11/18 07:44:39;;;;;;;15.93;10.00;;;3.00;99.90;;;;;;5052368;28;20209;-64
2023/11/18 07:47:07;;;;;;;24.80;10.02;;;3.00;99.90;;;;;;5052000;28;20811;-63
2023/11/18 07:49:35;;;;;;;24.83;9.65;;;3.10;99.90;;;;;;5052075;28;20779;-63
2023/11/18 07:52:02;;;;;;;17.67;10.38;;;3.10;99.90;;;;;;5052567;28;20206;-63
2023/11/18 07:54:29;;;;;;;17.33;7.95;;;3.10;99.90;;;;;;5052195;28;20609;-63
2023/11/18 07:56:57;;;;;;;23.25;8.60;;;3.20;99.90;;;;;;5051983;28;20625;-63
2023/11/18 07:59:24;;;;;;;14.52;9.35;;;3.20;99.90;;;;;;5051525;28;20234;-63
2023/11/18 08:01:50;;;;;;;21.10;12.65;;;3.20;99.90;;;;;;5051878;28;20294;-63
2023/11/18 08:04:20;;;;;;;14.15;10.18;;;3.30;99.90;;;;;;5051788;28;20209;-63
2023/11/18 08:06:47;;;;;;;16.73;11.98;;;3.30;99.90;;;;;;5051721;28;20233;-63
2023/11/18 08:09:19;;;;;;;20.08;11.23;;;3.30;99.90;;;;;;5052005;28;20712;-63
2023/11/18 08:11:46;;;;;;;21.08;9.20;;;3.40;99.90;;;;;;5052015;28;20210;-64
2023/11/18 08:14:13;;;;;;;8.73;7.65;;;3.40;99.90;;;;;;5051694;28;20313;-63
2023/11/18 08:16:40;;;;;;;11.55;7.18;;;3.40;99.90;;;;;;5051349;28;20206;-63
2023/11/18 08:19:07;;;;;;;10.05;7.18;;;3.50;99.90;;;;;;5051783;28;20824;-63
2023/11/18 08:21:37;;;;;;;16.00;7.63;;;3.50;99.90;;;;;;5051812;28;20216;-63
2023/11/18 08:24:05;;;;;;;18.42;7.90;;;3.50;99.90;;;;;;5051614;28;20214;-63
2023/11/18 08:26:32;;;;;;;11.00;8.82;;;3.50;99.90;;;;;;5051276;28;20289;-63
2023/11/18 08:28:59;;;;;;;10.82;8.00;;;3.50;99.90;;;;;;5051339;28;20223;-63
2023/11/18 08:31:25;;;;;;;19.80;8.52;;;3.50;99.90;;;;;;5051627;28;20303;-62
2023/11/18 08:33:54;;;;;;;16.27;8.88;;;3.50;99.90;;;;;;5051479;28;20686;-62
2023/11/18 08:36:22;;;;;;;18.88;9.27;;;3.50;99.90;;;;;;5051114;28;20210;-63
2023/11/18 08:38:51;;;;;;;17.00;9.20;;;3.60;99.90;;;;;;5050786;28;20219;-63
2023/11/18 08:41:19;;;;;;;11.23;8.25;;;3.60;99.90;;;;;;5050832;28;20202;-62
2023/11/18 08:43:49;;;;;;;16.90;8.15;;;3.70;99.90;;;;;;5053119;28;20206;-62
2023/11/18 08:46:16;;;;;;;8.95;7.28;;;3.70;99.90;;;;;;5050748;28;20210;-63
2023/11/18 08:48:44;;;;;;;20.80;9.05;;;3.70;99.90;;;;;;5050007;28;20226;-62
2023/11/18 08:51:12;;;;;;;18.33;9.85;;;3.80;99.90;;;;;;5050913;28;20229;-63
2023/11/18 08:53:41;;;;;;;15.15;9.35;;;3.90;99.90;;;;;;5050057;28;20660;-63
2023/11/18 08:56:13;;;;;;;13.38;6.68;;;3.90;99.90;;;;;;5050567;28;20213;-63
2023/11/18 08:58:44;;;;;;;15.73;9.07;;;4.00;99.90;;;;;;5050129;28;20628;-63
2023/11/18 09:01:13;;;;;;;9.45;7.45;;;4.00;99.90;;;;;;5050339;28;20234;-63
2023/11/18 09:03:43;;;;;;;8.45;7.50;;;4.00;99.90;;;;;;5050969;28;20281;-63
2023/11/18 09:06:17;;;;;;;15.73;9.55;;;4.00;99.90;;;;;;5049726;28;20296;-63
2023/11/18 09:08:44;;;;;;;14.45;8.05;;;4.10;99.90;;;;;;5050809;28;20217;-63
2023/11/18 09:11:14;;;;;;;9.60;7.25;;;4.10;99.90;;;;;;5050109;28;20302;-63
2023/11/18 09:13:44;;;;;;;11.75;7.95;;;4.10;99.90;;;;;;5050680;28;20230;-63
2023/11/18 09:16:12;;;;;;;13.38;8.45;;;4.10;99.90;;;;;;5049644;28;20252;-63
2023/11/18 09:18:41;;;;;;;13.07;8.35;;;4.20;99.90;;;;;;5054093;28;20222;-63
2023/11/18 09:21:14;;;;;;;11.80;8.43;;;4.20;99.90;;;;;;5054269;28;20743;-63
2023/11/18 09:23:41;;;;;;;12.75;10.55;;;4.30;99.90;;;;;;5054665;28;20204;-63
2023/11/18 09:26:10;;;;;;;16.30;10.38;;;4.30;99.90;;;;;;5053471;28;20302;-63
2023/11/18 09:28:38;;;;;;;11.23;7.85;;;4.30;99.90;;;;;;5054472;28;20707;-63
2023/11/18 09:31:11;;;;;;;10.95;8.13;;;4.40;99.90;;;;;;5052131;28;20212;-63
2023/11/18 09:33:39;;;;;;;9.85;7.32;;;4.50;99.90;;;;;;5054005;28;20222;-63
2023/11/18 09:36:08;;;;;;;14.48;9.35;;;4.60;99.90;;;;;;5053296;28;20306;-63
2023/11/18 09:38:36;;;;;;;13.93;9.57;;;4.70;99.90;;;;;;5054411;28;20226;-63
2023/11/18 09:41:06;;;;;;;14.65;9.25;;;4.80;99.90;;;;;;5053058;28;20661;-63
2023/11/18 09:43:41;;;;;;;14.27;8.18;;;5.00;99.90;;;;;;5054471;28;20203;-63
2023/11/18 09:46:13;;;;;;;12.05;9.30;;;5.20;99.90;;;;;;5054554;28;20293;-63
2023/11/18 09:48:47;;;;;;;15.57;9.63;;;5.30;99.90;;;;;;5064190;28;20246;-63
2023/11/18 09:51:20;;;;;;;11.40;8.10;;;5.40;99.90;;;;;;5057137;28;20238;-63
2023/11/18 09:53:52;;;;;;;15.18;9.68;;;5.50;99.90;;;;;;5054329;28;20222;-63
2023/11/18 09:56:26;;;;;;;16.05;9.65;;;5.50;99.90;;;;;;5053541;28;20232;-63
2023/11/18 09:59:05;;;;;;;14.60;9.57;;;5.60;99.90;;;;;;5053080;28;20235;-63
2023/11/18 10:01:39;;;;;;;13.02;11.73;;;5.70;99.90;;;;;;5047188;28;20198;-63
2023/11/18 10:04:07;;;;;;;13.82;9.25;;;5.70;99.90;;;;;;5052966;28;20202;-63
2023/11/18 10:06:36;;;;;;;14.95;10.15;;;5.70;99.90;;;;;;5053248;28;20218;-63
2023/11/18 10:09:15;;;;;;;15.40;10.27;;;5.70;99.90;;;;;;5053215;28;20233;-63
2023/11/18 10:11:43;;;;;;;10.95;7.60;;;5.80;99.90;;;;;;5053774;28;20230;-63
2023/11/18 10:14:10;;;;;;;12.93;9.60;;;5.90;99.90;;;;;;5053046;28;20329;-62
2023/11/18 10:16:39;;;;;;;16.20;9.57;;;5.90;99.90;;;;;;5053415;28;20264;-63
2023/11/18 10:19:09;;;;;;;16.02;11.50;;;6.00;99.90;;;;;;5053470;28;20223;-63
2023/11/18 10:21:39;;;;;;;12.00;9.50;;;6.00;99.90;;;;;;5053493;28;20573;-63
2023/11/18 10:24:14;;;;;;;15.65;10.85;;;6.10;99.90;;;;;;5053779;28;20622;-63
2023/11/18 10:26:41;;;;;;;15.30;11.88;;;6.20;99.90;;;;;;5053190;28;20305;-63
2023/11/18 10:29:12;;;;;;;18.17;12.68;;;6.20;99.90;;;;;;5051881;28;20309;-63
2023/11/18 10:31:45;;;;;;;21.25;14.15;;;6.20;99.90;;;;;;5053309;28;20249;-63
2023/11/18 10:34:15;;;;;;;21.10;15.02;;;6.10;99.90;;;;;;5053136;28;20222;-63
2023/11/18 10:36:43;;;;;;;17.65;14.57;;;6.10;99.90;;;;;;5053192;28;20207;-63
2023/11/18 10:39:16;;;;;;;22.92;16.25;;;6.10;99.90;;;;;;5053282;28;20645;-64
2023/11/18 10:41:45;;;;;;;19.27;15.15;;;6.10;99.90;;;;;;5053267;28;20213;-63
2023/11/18 10:44:15;;;;;;;26.38;15.85;;;6.20;99.90;;;;;;5053161;28;20292;-63
2023/11/18 10:46:53;;;;;;;20.63;16.17;;;6.20;99.90;;;;;;5052023;28;20308;-63
2023/11/18 10:49:21;;;;;;;27.30;16.40;;;6.20;99.90;;;;;;5052933;28;20719;-63
2023/11/18 10:51:48;;;;;;;26.83;17.67;;;6.20;99.90;;;;;;5052917;28;20699;-64
2023/11/18 10:54:17;;;;;;;25.15;18.85;;;6.20;99.90;;;;;;5052878;28;20218;-62
2023/11/18 10:56:50;;;;;;;25.45;17.13;;;6.30;99.90;;;;;;5052440;28;20229;-63
2023/11/18 10:59:18;;;;;;;22.45;16.67;;;6.20;99.90;;;;;;5052690;28;20249;-63
2023/11/18 11:01:48;;;;;;;26.73;18.38;;;6.20;99.90;;;;;;5053082;28;20313;-62
2023/11/18 11:04:16;;;;;;;23.90;17.02;;;6.20;99.90;;;;;;5052720;28;20206;-63
2023/11/18 11:06:52;;;;;;;22.63;15.80;;;6.30;99.90;;;;;;5052285;28;20665;-63
2023/11/18 11:09:20;;;;;;;27.73;16.77;;;6.30;99.90;;;;;;5052682;28;20229;-63
2023/11/18 11:11:51;;;;;;;25.35;14.90;;;6.30;99.90;;;;;;5052586;28;20264;-63
2023/11/18 11:14:21;;;;;;;28.58;17.50;;;6.40;99.90;;;;;;5052713;28;20230;-63
2023/11/18 11:16:55;;;;;;;20.90;16.23;;;6.50;99.90;;;;;;5052380;28;20722;-62
2023/11/18 11:19:29;;;;;;;22.20;16.13;;;6.60;99.90;;;;;;5052264;28;20320;-63
2023/11/18 11:22:07;;;;;;;24.65;16.92;;;6.60;99.90;;;;;;5052239;28;20206;-63
2023/11/18 11:24:50;;;;;;;22.20;17.88;;;6.60;99.90;;;;;;5052364;28;20198;-63
2023/11/18 11:27:29;;;;;;;26.92;16.45;;;6.70;99.90;;;;;;5051584;28;20297;-64
2023/11/18 11:30:10;;;;;;;26.00;15.02;;;6.80;99.90;;;;;;5051431;28;20226;-63
2023/11/18 11:32:45;;;;;;;28.83;18.00;;;6.90;99.90;;;;;;5052486;28;20203;-63
2023/11/18 11:35:21;;;;;;;26.02;17.90;;;6.90;99.90;;;;;;5052325;28;20746;-63
2023/11/18 11:37:49;;;;;;;28.05;16.90;;;6.90;99.90;;;;;;5051904;28;20210;-64
2023/11/18 11:40:21;;;;;;;25.30;17.35;;;6.90;99.90;;;;;;5051648;28;20300;-63
2023/11/18 11:42:54;;;;;;;30.98;20.20;;;7.00;99.90;;;;;;5051635;28;20210;-63
2023/11/18 11:45:28;;;;;;;26.15;19.08;;;7.00;99.90;;;;;;5051788;28;20744;-63
2023/11/18 11:48:13;;;;;;;30.77;21.35;;;7.00;99.90;;;;;;5051360;28;20651;-63
2023/11/18 11:50:54;;;;;;;29.65;18.77;;;7.10;99.90;;;;;;5051888;28;20245;-63
2023/11/18 11:53:26;;;;;;;33.90;21.77;;;7.10;99.90;;;;;;5050762;28;20297;-63
2023/11/18 11:56:04;;;;;;;30.15;19.55;;;7.10;99.90;;;;;;5051485;28;20762;-63
2023/11/18 11:58:32;;;;;;;26.98;17.27;;;7.20;99.90;;;;;;5051582;28;20735;-63
2023/11/18 12:01:03;;;;;;;27.58;21.05;;;7.30;99.90;;;;;;5049725;28;20249;-63
2023/11/18 12:03:36;;;;;;;30.90;21.85;;;7.30;99.90;;;;;;5050754;28;20284;-63
2023/11/18 12:06:07;;;;;;;33.13;22.42;;;7.30;99.90;;;;;;5050962;28;20233;-63
2023/11/18 12:08:37;;;;;;;26.75;20.52;;;7.40;99.90;;;;;;5051035;28;20611;-63
2023/11/18 12:11:09;;;;;;;29.92;21.88;;;7.40;99.90;;;;;;5050605;28;20214;-63
2023/11/18 12:13:39;;;;;;;28.10;20.88;;;7.40;99.90;;;;;;5051043;28;20205;-62
2023/11/18 12:16:10;;;;;;;27.90;19.77;;;7.50;99.90;;;;;;5050448;28;20276;-63
2023/11/18 12:18:38;;;;;;;22.58;18.70;;;7.60;99.90;;;;;;5050939;28;20226;-64
2023/11/18 12:21:05;;;;;;;30.33;21.15;;;7.60;99.90;;;;;;5051152;28;20237;-64
2023/11/18 12:23:34;;;;;;;32.03;20.27;;;7.70;99.90;;;;;;5051127;28;20580;-64
2023/11/18 12:26:02;;;;;;;23.83;18.55;;;7.80;99.90;;;;;;5064119;28;20233;-63
2023/11/18 12:28:34;;;;;;;26.92;20.30;;;7.80;99.90;;;;;;5070290;28;20225;-63
2023/11/18 12:31:05;;;;;;;23.17;19.08;;;7.80;99.90;;;;;;5066400;28;20202;-63
2023/11/18 12:34:08;;;;;;;30.23;21.40;;;7.80;99.90;;;;;;5051216;28;20559;-63
2023/11/18 12:37:10;;;;;;;25.40;19.77;;;7.80;99.90;;;;;;5065447;28;20207;-63
2023/11/18 12:40:17;;;;;;;26.23;20.92;;;7.80;99.90;;;;;;5028942;28;20234;-64
2023/11/18 12:43:10;;;;;;;26.42;23.52;;;7.90;99.90;;;;;;5044653;28;20202;-64
2023/11/18 12:46:20;;;;;;;24.02;17.23;;;7.90;99.90;;;;;;5041184;28;20199;-64
2023/11/18 12:48:51;;;;;;;27.40;20.80;;;7.90;99.90;;;;;;5051015;28;20724;-64
2023/11/18 12:51:23;;;;;;;24.27;19.55;;;7.90;99.90;;;;;;5050104;28;20685;-64
2023/11/18 12:53:53;;;;;;;24.60;18.05;;;7.90;99.90;;;;;;5049282;28;20786;-64
2023/11/18 12:56:20;;;;;;;26.73;18.63;;;7.90;99.90;;;;;;5050144;28;20236;-64